sensor_id;sensor_type;location;lat;lon;timestamp;P1;durP1;ratioP1;P2;durP2;ratioP2
10309;SDS011;5200;43.236;27.986;2022-07-22T00:01:15;2.97;;;2.40;;
10309;SDS011;5200;43.236;27.986;2022-07-22T00:03:42;3.17;;;2.50;;
10309;SDS011;5200;43.236;27.986;2022-07-22T00:06:09;2.78;;;2.10;;
10309;SDS011;5200;43.236;27.986;2022-07-22T00:08:36;3.20;;;2.30;;
10309;SDS011;5200;43.236;27.986;2022-07-22T00:11:03;3.00;;;2.70;;
10309;SDS011;5200;43.236;27.986;2022-07-22T00:13:30;2.55;;;2.35;;
10309;SDS011;5200;43.236;27.986;2022-07-22T00:15:57;3.85;;;2.72;;
10309;SDS011;5200;43.236;27.986;2022-07-22T00:18:26;3.33;;;2.35;;
10309;SDS011;5200;43.236;27.986;2022-07-22T00:20:53;3.33;;;2.40;;
10309;SDS011;5200;43.236;27.986;2022-07-22T00:23:20;2.83;;;2.60;;
10309;SDS011;5200;43.236;27.986;2022-07-22T00:25:47;3.03;;;2.40;;
10309;SDS011;5200;43.236;27.986;2022-07-22T00:28:14;2.30;;;2.10;;
10309;SDS011;5200;43.236;27.986;2022-07-22T00:30:41;4.68;;;2.30;;
10309;SDS011;5200;43.236;27.986;2022-07-22T00:33:08;3.95;;;2.10;;
10309;SDS011;5200;43.236;27.986;2022-07-22T00:35:36;5.00;;;2.38;;
10309;SDS011;5200;43.236;27.986;2022-07-22T00:38:03;3.78;;;2.28;;
10309;SDS011;5200;43.236;27.986;2022-07-22T00:40:30;3.13;;;2.63;;
10309;SDS011;5200;43.236;27.986;2022-07-22T00:42:57;3.10;;;2.30;;
10309;SDS011;5200;43.236;27.986;2022-07-22T00:45:25;3.10;;;2.30;;
10309;SDS011;5200;43.236;27.986;2022-07-22T00:47:52;2.42;;;2.17;;
10309;SDS011;5200;43.236;27.986;2022-07-22T00:50:20;3.00;;;2.30;;
10309;SDS011;5200;43.236;27.986;2022-07-22T00:52:50;2.75;;;2.28;;
10309;SDS011;5200;43.236;27.986;2022-07-22T00:55:17;3.63;;;2.38;;
10309;SDS011;5200;43.236;27.986;2022-07-22T00:57:47;3.05;;;2.40;;
10309;SDS011;5200;43.236;27.986;2022-07-22T01:00:16;4.47;;;2.20;;
10309;SDS011;5200;43.236;27.986;2022-07-22T01:02:45;2.92;;;2.50;;
10309;SDS011;5200;43.236;27.986;2022-07-22T01:05:12;5.55;;;2.88;;
10309;SDS011;5200;43.236;27.986;2022-07-22T01:07:39;7.80;;;2.60;;
10309;SDS011;5200;43.236;27.986;2022-07-22T01:10:08;3.95;;;2.47;;
10309;SDS011;5200;43.236;27.986;2022-07-22T01:12:35;4.25;;;2.58;;
10309;SDS011;5200;43.236;27.986;2022-07-22T01:15:03;3.08;;;2.47;;
10309;SDS011;5200;43.236;27.986;2022-07-22T01:17:31;3.95;;;2.90;;
10309;SDS011;5200;43.236;27.986;2022-07-22T01:20:00;3.78;;;2.45;;
10309;SDS011;5200;43.236;27.986;2022-07-22T01:22:28;3.00;;;2.47;;
10309;SDS011;5200;43.236;27.986;2022-07-22T01:24:57;3.80;;;2.40;;
10309;SDS011;5200;43.236;27.986;2022-07-22T01:27:24;3.17;;;2.33;;
10309;SDS011;5200;43.236;27.986;2022-07-22T01:29:51;2.85;;;2.50;;
10309;SDS011;5200;43.236;27.986;2022-07-22T01:32:18;3.65;;;2.50;;
10309;SDS011;5200;43.236;27.986;2022-07-22T01:34:45;3.90;;;2.30;;
10309;SDS011;5200;43.236;27.986;2022-07-22T01:37:14;3.78;;;2.20;;
10309;SDS011;5200;43.236;27.986;2022-07-22T01:39:40;3.10;;;2.80;;
10309;SDS011;5200;43.236;27.986;2022-07-22T01:42:07;2.70;;;2.50;;
10309;SDS011;5200;43.236;27.986;2022-07-22T01:44:34;2.80;;;2.40;;
10309;SDS011;5200;43.236;27.986;2022-07-22T01:47:01;2.42;;;2.22;;
10309;SDS011;5200;43.236;27.986;2022-07-22T01:49:28;2.70;;;2.30;;
10309;SDS011;5200;43.236;27.986;2022-07-22T01:51:55;2.35;;;2.15;;
10309;SDS011;5200;43.236;27.986;2022-07-22T01:54:24;4.18;;;2.50;;
10309;SDS011;5200;43.236;27.986;2022-07-22T01:56:51;3.05;;;2.35;;
10309;SDS011;5200;43.236;27.986;2022-07-22T01:59:18;5.88;;;2.58;;
10309;SDS011;5200;43.236;27.986;2022-07-22T02:01:45;3.40;;;2.40;;
10309;SDS011;5200;43.236;27.986;2022-07-22T02:04:12;3.38;;;2.83;;
10309;SDS011;5200;43.236;27.986;2022-07-22T02:06:39;3.00;;;2.80;;
10309;SDS011;5200;43.236;27.986;2022-07-22T02:09:06;5.03;;;2.70;;
10309;SDS011;5200;43.236;27.986;2022-07-22T02:11:35;3.25;;;2.70;;
10309;SDS011;5200;43.236;27.986;2022-07-22T02:14:02;3.30;;;2.03;;
10309;SDS011;5200;43.236;27.986;2022-07-22T02:16:29;2.70;;;2.50;;
10309;SDS011;5200;43.236;27.986;2022-07-22T02:18:56;5.22;;;2.92;;
10309;SDS011;5200;43.236;27.986;2022-07-22T02:21:23;6.30;;;2.78;;
10309;SDS011;5200;43.236;27.986;2022-07-22T02:23:50;5.57;;;2.58;;
10309;SDS011;5200;43.236;27.986;2022-07-22T02:26:17;2.88;;;2.58;;
10309;SDS011;5200;43.236;27.986;2022-07-22T02:28:45;6.70;;;3.13;;
10309;SDS011;5200;43.236;27.986;2022-07-22T02:31:12;3.88;;;2.78;;
10309;SDS011;5200;43.236;27.986;2022-07-22T02:33:39;2.60;;;2.40;;
10309;SDS011;5200;43.236;27.986;2022-07-22T02:36:07;4.03;;;2.65;;
10309;SDS011;5200;43.236;27.986;2022-07-22T02:38:34;3.97;;;2.40;;
10309;SDS011;5200;43.236;27.986;2022-07-22T02:41:01;3.38;;;2.50;;
10309;SDS011;5200;43.236;27.986;2022-07-22T02:43:28;3.22;;;2.75;;
10309;SDS011;5200;43.236;27.986;2022-07-22T02:45:56;3.30;;;2.90;;
10309;SDS011;5200;43.236;27.986;2022-07-22T02:48:23;2.13;;;2.00;;
10309;SDS011;5200;43.236;27.986;2022-07-22T02:50:50;3.38;;;2.65;;
10309;SDS011;5200;43.236;27.986;2022-07-22T02:53:17;4.15;;;2.50;;
10309;SDS011;5200;43.236;27.986;2022-07-22T02:55:44;4.13;;;2.63;;
10309;SDS011;5200;43.236;27.986;2022-07-22T02:58:11;3.17;;;2.88;;
10309;SDS011;5200;43.236;27.986;2022-07-22T03:00:38;3.22;;;2.30;;
10309;SDS011;5200;43.236;27.986;2022-07-22T03:03:06;4.78;;;3.03;;
10309;SDS011;5200;43.236;27.986;2022-07-22T03:05:33;3.47;;;2.45;;
10309;SDS011;5200;43.236;27.986;2022-07-22T03:08:00;3.45;;;2.70;;
10309;SDS011;5200;43.236;27.986;2022-07-22T03:10:27;3.45;;;2.70;;
10309;SDS011;5200;43.236;27.986;2022-07-22T03:12:54;2.88;;;2.65;;
10309;SDS011;5200;43.236;27.986;2022-07-22T03:15:21;6.28;;;3.83;;
10309;SDS011;5200;43.236;27.986;2022-07-22T03:17:48;3.00;;;2.78;;
10309;SDS011;5200;43.236;27.986;2022-07-22T03:20:16;3.33;;;2.97;;
10309;SDS011;5200;43.236;27.986;2022-07-22T03:22:43;5.63;;;2.80;;
10309;SDS011;5200;43.236;27.986;2022-07-22T03:25:10;5.75;;;2.70;;
10309;SDS011;5200;43.236;27.986;2022-07-22T03:27:37;4.13;;;2.42;;
10309;SDS011;5200;43.236;27.986;2022-07-22T03:30:05;2.75;;;2.55;;
10309;SDS011;5200;43.236;27.986;2022-07-22T03:32:32;3.30;;;2.70;;
10309;SDS011;5200;43.236;27.986;2022-07-22T03:34:59;3.05;;;2.47;;
10309;SDS011;5200;43.236;27.986;2022-07-22T03:37:27;2.80;;;2.60;;
10309;SDS011;5200;43.236;27.986;2022-07-22T03:39:54;5.97;;;2.75;;
10309;SDS011;5200;43.236;27.986;2022-07-22T03:42:21;2.95;;;2.30;;
10309;SDS011;5200;43.236;27.986;2022-07-22T03:44:48;6.55;;;2.20;;
10309;SDS011;5200;43.236;27.986;2022-07-22T03:47:18;3.05;;;2.50;;
10309;SDS011;5200;43.236;27.986;2022-07-22T03:49:45;4.65;;;2.47;;
10309;SDS011;5200;43.236;27.986;2022-07-22T03:52:12;3.08;;;2.65;;
10309;SDS011;5200;43.236;27.986;2022-07-22T03:54:41;2.70;;;2.50;;
10309;SDS011;5200;43.236;27.986;2022-07-22T03:57:08;5.30;;;2.45;;
10309;SDS011;5200;43.236;27.986;2022-07-22T03:59:36;3.60;;;2.70;;
10309;SDS011;5200;43.236;27.986;2022-07-22T04:02:03;2.38;;;2.17;;
10309;SDS011;5200;43.236;27.986;2022-07-22T04:04:30;4.47;;;2.63;;
10309;SDS011;5200;43.236;27.986;2022-07-22T04:06:57;5.85;;;2.88;;
10309;SDS011;5200;43.236;27.986;2022-07-22T04:09:24;9.02;;;2.60;;
10309;SDS011;5200;43.236;27.986;2022-07-22T04:11:53;4.72;;;2.67;;
10309;SDS011;5200;43.236;27.986;2022-07-22T04:14:19;6.45;;;2.38;;
10309;SDS011;5200;43.236;27.986;2022-07-22T04:16:46;3.95;;;2.67;;
10309;SDS011;5200;43.236;27.986;2022-07-22T04:19:14;4.13;;;2.85;;
10309;SDS011;5200;43.236;27.986;2022-07-22T04:21:41;7.38;;;2.83;;
10309;SDS011;5200;43.236;27.986;2022-07-22T04:24:08;9.18;;;3.17;;
10309;SDS011;5200;43.236;27.986;2022-07-22T04:26:40;2.85;;;2.65;;
10309;SDS011;5200;43.236;27.986;2022-07-22T04:29:08;5.53;;;2.42;;
10309;SDS011;5200;43.236;27.986;2022-07-22T04:31:35;3.63;;;2.28;;
10309;SDS011;5200;43.236;27.986;2022-07-22T04:34:02;5.25;;;2.42;;
10309;SDS011;5200;43.236;27.986;2022-07-22T04:36:29;7.35;;;2.60;;
10309;SDS011;5200;43.236;27.986;2022-07-22T04:38:56;5.18;;;2.35;;
10309;SDS011;5200;43.236;27.986;2022-07-22T04:41:23;3.33;;;2.30;;
10309;SDS011;5200;43.236;27.986;2022-07-22T04:43:50;3.88;;;2.13;;
10309;SDS011;5200;43.236;27.986;2022-07-22T04:46:21;3.53;;;2.60;;
10309;SDS011;5200;43.236;27.986;2022-07-22T04:48:48;2.20;;;2.00;;
10309;SDS011;5200;43.236;27.986;2022-07-22T04:51:15;2.97;;;2.13;;
10309;SDS011;5200;43.236;27.986;2022-07-22T04:53:42;2.38;;;2.00;;
10309;SDS011;5200;43.236;27.986;2022-07-22T04:56:09;3.88;;;2.42;;
10309;SDS011;5200;43.236;27.986;2022-07-22T04:58:36;7.45;;;2.70;;
10309;SDS011;5200;43.236;27.986;2022-07-22T05:01:03;10.00;;;2.42;;
10309;SDS011;5200;43.236;27.986;2022-07-22T05:03:32;6.50;;;2.53;;
10309;SDS011;5200;43.236;27.986;2022-07-22T05:05:59;9.82;;;2.28;;
10309;SDS011;5200;43.236;27.986;2022-07-22T05:08:26;5.18;;;2.25;;
10309;SDS011;5200;43.236;27.986;2022-07-22T05:10:53;6.57;;;2.55;;
10309;SDS011;5200;43.236;27.986;2022-07-22T05:13:20;7.88;;;2.30;;
10309;SDS011;5200;43.236;27.986;2022-07-22T05:15:48;5.05;;;2.40;;
10309;SDS011;5200;43.236;27.986;2022-07-22T05:18:15;3.30;;;2.20;;
10309;SDS011;5200;43.236;27.986;2022-07-22T05:20:44;5.18;;;2.25;;
10309;SDS011;5200;43.236;27.986;2022-07-22T05:23:11;11.77;;;2.53;;
10309;SDS011;5200;43.236;27.986;2022-07-22T05:25:38;7.65;;;2.28;;
10309;SDS011;5200;43.236;27.986;2022-07-22T05:28:05;3.30;;;2.33;;
10309;SDS011;5200;43.236;27.986;2022-07-22T05:30:32;3.28;;;2.42;;
10309;SDS011;5200;43.236;27.986;2022-07-22T05:32:58;7.18;;;2.40;;
10309;SDS011;5200;43.236;27.986;2022-07-22T05:35:25;4.07;;;1.90;;
10309;SDS011;5200;43.236;27.986;2022-07-22T05:37:54;9.25;;;2.30;;
10309;SDS011;5200;43.236;27.986;2022-07-22T05:40:21;5.95;;;1.85;;
10309;SDS011;5200;43.236;27.986;2022-07-22T05:42:48;3.28;;;1.73;;
10309;SDS011;5200;43.236;27.986;2022-07-22T05:45:15;3.83;;;2.03;;
10309;SDS011;5200;43.236;27.986;2022-07-22T05:47:42;5.13;;;2.10;;
10309;SDS011;5200;43.236;27.986;2022-07-22T05:50:09;3.95;;;1.92;;
10309;SDS011;5200;43.236;27.986;2022-07-22T05:52:36;2.58;;;2.13;;
10309;SDS011;5200;43.236;27.986;2022-07-22T05:55:05;1.85;;;1.67;;
10309;SDS011;5200;43.236;27.986;2022-07-22T05:57:32;6.85;;;2.33;;
10309;SDS011;5200;43.236;27.986;2022-07-22T05:59:59;2.75;;;1.85;;
10309;SDS011;5200;43.236;27.986;2022-07-22T06:02:26;4.72;;;1.95;;
10309;SDS011;5200;43.236;27.986;2022-07-22T06:04:53;4.22;;;1.95;;
10309;SDS011;5200;43.236;27.986;2022-07-22T06:07:21;3.78;;;1.83;;
10309;SDS011;5200;43.236;27.986;2022-07-22T06:09:48;5.45;;;2.10;;
10309;SDS011;5200;43.236;27.986;2022-07-22T06:12:16;1.80;;;1.63;;
10309;SDS011;5200;43.236;27.986;2022-07-22T06:14:43;4.20;;;1.45;;
10309;SDS011;5200;43.236;27.986;2022-07-22T06:17:11;5.13;;;1.80;;
10309;SDS011;5200;43.236;27.986;2022-07-22T06:19:38;4.15;;;1.60;;
10309;SDS011;5200;43.236;27.986;2022-07-22T06:22:05;6.20;;;1.67;;
10309;SDS011;5200;43.236;27.986;2022-07-22T06:24:32;3.53;;;1.92;;
10309;SDS011;5200;43.236;27.986;2022-07-22T06:26:59;1.73;;;1.63;;
10309;SDS011;5200;43.236;27.986;2022-07-22T06:29:27;1.77;;;1.65;;
10309;SDS011;5200;43.236;27.986;2022-07-22T06:31:54;4.50;;;1.70;;
10309;SDS011;5200;43.236;27.986;2022-07-22T06:34:21;14.60;;;2.45;;
10309;SDS011;5200;43.236;27.986;2022-07-22T06:36:48;5.53;;;2.28;;
10309;SDS011;5200;43.236;27.986;2022-07-22T06:39:15;3.95;;;1.58;;
10309;SDS011;5200;43.236;27.986;2022-07-22T06:41:42;3.03;;;1.73;;
10309;SDS011;5200;43.236;27.986;2022-07-22T06:44:09;3.17;;;1.75;;
10309;SDS011;5200;43.236;27.986;2022-07-22T06:46:38;1.92;;;1.70;;
10309;SDS011;5200;43.236;27.986;2022-07-22T06:49:05;1.60;;;1.45;;
10309;SDS011;5200;43.236;27.986;2022-07-22T06:51:32;5.10;;;1.67;;
10309;SDS011;5200;43.236;27.986;2022-07-22T06:54:00;3.42;;;1.58;;
10309;SDS011;5200;43.236;27.986;2022-07-22T06:56:27;3.28;;;1.65;;
10309;SDS011;5200;43.236;27.986;2022-07-22T06:58:54;4.20;;;1.65;;
10309;SDS011;5200;43.236;27.986;2022-07-22T07:01:21;3.13;;;2.17;;
10309;SDS011;5200;43.236;27.986;2022-07-22T07:03:49;1.63;;;1.52;;
10309;SDS011;5200;43.236;27.986;2022-07-22T07:06:16;10.98;;;1.90;;
10309;SDS011;5200;43.236;27.986;2022-07-22T07:08:43;4.35;;;1.55;;
10309;SDS011;5200;43.236;27.986;2022-07-22T07:11:10;2.17;;;1.42;;
10309;SDS011;5200;43.236;27.986;2022-07-22T07:13:37;3.28;;;1.52;;
10309;SDS011;5200;43.236;27.986;2022-07-22T07:16:04;5.18;;;1.50;;
10309;SDS011;5200;43.236;27.986;2022-07-22T07:18:32;3.65;;;1.33;;
10309;SDS011;5200;43.236;27.986;2022-07-22T07:21:00;1.80;;;1.50;;
10309;SDS011;5200;43.236;27.986;2022-07-22T07:23:27;3.00;;;1.23;;
10309;SDS011;5200;43.236;27.986;2022-07-22T07:25:54;2.58;;;1.10;;
10309;SDS011;5200;43.236;27.986;2022-07-22T07:28:21;3.45;;;1.73;;
10309;SDS011;5200;43.236;27.986;2022-07-22T07:30:49;2.47;;;1.65;;
10309;SDS011;5200;43.236;27.986;2022-07-22T07:33:16;1.70;;;1.40;;
10309;SDS011;5200;43.236;27.986;2022-07-22T07:35:43;3.88;;;1.35;;
10309;SDS011;5200;43.236;27.986;2022-07-22T07:38:12;2.25;;;1.48;;
10309;SDS011;5200;43.236;27.986;2022-07-22T07:40:39;1.63;;;1.52;;
10309;SDS011;5200;43.236;27.986;2022-07-22T07:43:06;4.43;;;1.30;;
10309;SDS011;5200;43.236;27.986;2022-07-22T07:45:33;5.78;;;1.50;;
10309;SDS011;5200;43.236;27.986;2022-07-22T07:48:02;1.83;;;1.40;;
10309;SDS011;5200;43.236;27.986;2022-07-22T07:50:29;1.58;;;1.15;;
10309;SDS011;5200;43.236;27.986;2022-07-22T07:52:56;5.07;;;1.70;;
10309;SDS011;5200;43.236;27.986;2022-07-22T07:55:25;2.75;;;1.58;;
10309;SDS011;5200;43.236;27.986;2022-07-22T07:57:52;8.05;;;1.60;;
10309;SDS011;5200;43.236;27.986;2022-07-22T08:00:20;3.33;;;1.30;;
10309;SDS011;5200;43.236;27.986;2022-07-22T08:02:48;2.38;;;1.45;;
10309;SDS011;5200;43.236;27.986;2022-07-22T08:05:15;5.03;;;1.30;;
10309;SDS011;5200;43.236;27.986;2022-07-22T08:07:44;6.03;;;1.67;;
10309;SDS011;5200;43.236;27.986;2022-07-22T08:10:11;2.30;;;1.50;;
10309;SDS011;5200;43.236;27.986;2022-07-22T08:12:40;2.30;;;1.50;;
10309;SDS011;5200;43.236;27.986;2022-07-22T08:15:07;5.95;;;2.55;;
10309;SDS011;5200;43.236;27.986;2022-07-22T08:17:35;4.03;;;2.40;;
10309;SDS011;5200;43.236;27.986;2022-07-22T08:20:02;3.63;;;1.55;;
10309;SDS011;5200;43.236;27.986;2022-07-22T08:22:30;1.23;;;1.13;;
10309;SDS011;5200;43.236;27.986;2022-07-22T08:24:57;8.20;;;1.52;;
10309;SDS011;5200;43.236;27.986;2022-07-22T08:27:24;2.42;;;1.05;;
10309;SDS011;5200;43.236;27.986;2022-07-22T08:29:53;1.40;;;1.30;;
10309;SDS011;5200;43.236;27.986;2022-07-22T08:32:20;3.72;;;0.90;;
10309;SDS011;5200;43.236;27.986;2022-07-22T08:34:47;2.45;;;1.25;;
10309;SDS011;5200;43.236;27.986;2022-07-22T08:37:14;1.48;;;1.20;;
10309;SDS011;5200;43.236;27.986;2022-07-22T08:39:41;2.88;;;1.17;;
10309;SDS011;5200;43.236;27.986;2022-07-22T08:42:08;2.17;;;1.75;;
10309;SDS011;5200;43.236;27.986;2022-07-22T08:44:35;5.57;;;1.60;;
10309;SDS011;5200;43.236;27.986;2022-07-22T08:47:04;4.45;;;1.52;;
10309;SDS011;5200;43.236;27.986;2022-07-22T08:49:31;7.80;;;1.80;;
10309;SDS011;5200;43.236;27.986;2022-07-22T08:51:58;5.78;;;1.05;;
10309;SDS011;5200;43.236;27.986;2022-07-22T08:54:26;1.55;;;1.13;;
10309;SDS011;5200;43.236;27.986;2022-07-22T08:56:53;3.53;;;1.02;;
10309;SDS011;5200;43.236;27.986;2022-07-22T08:59:20;1.50;;;1.15;;
10309;SDS011;5200;43.236;27.986;2022-07-22T09:04:49;2.67;;;1.60;;
10309;SDS011;5200;43.236;27.986;2022-07-22T09:07:25;4.25;;;1.40;;
10309;SDS011;5200;43.236;27.986;2022-07-22T09:09:53;1.65;;;1.38;;
10309;SDS011;5200;43.236;27.986;2022-07-22T09:12:20;5.32;;;1.13;;
10309;SDS011;5200;43.236;27.986;2022-07-22T09:14:48;4.20;;;1.40;;
10309;SDS011;5200;43.236;27.986;2022-07-22T09:17:28;1.92;;;1.42;;
10309;SDS011;5200;43.236;27.986;2022-07-22T09:19:55;1.02;;;1.00;;
10309;SDS011;5200;43.236;27.986;2022-07-22T09:22:33;6.60;;;1.73;;
10309;SDS011;5200;43.236;27.986;2022-07-22T09:25:18;2.05;;;1.40;;
10309;SDS011;5200;43.236;27.986;2022-07-22T09:27:53;1.38;;;1.20;;
10309;SDS011;5200;43.236;27.986;2022-07-22T09:30:23;3.13;;;1.60;;
10309;SDS011;5200;43.236;27.986;2022-07-22T09:32:53;3.17;;;1.30;;
10309;SDS011;5200;43.236;27.986;2022-07-22T09:35:21;3.42;;;1.25;;
10309;SDS011;5200;43.236;27.986;2022-07-22T09:37:50;6.57;;;2.10;;
10309;SDS011;5200;43.236;27.986;2022-07-22T09:40:19;2.30;;;1.90;;
10309;SDS011;5200;43.236;27.986;2022-07-22T09:42:48;5.53;;;1.63;;
10309;SDS011;5200;43.236;27.986;2022-07-22T09:45:17;3.17;;;2.53;;
10309;SDS011;5200;43.236;27.986;2022-07-22T09:47:45;3.03;;;1.95;;
10309;SDS011;5200;43.236;27.986;2022-07-22T09:50:16;4.53;;;2.67;;
10309;SDS011;5200;43.236;27.986;2022-07-22T09:52:44;4.20;;;2.45;;
10309;SDS011;5200;43.236;27.986;2022-07-22T09:55:13;4.22;;;2.30;;
10309;SDS011;5200;43.236;27.986;2022-07-22T09:57:41;3.55;;;2.42;;
10309;SDS011;5200;43.236;27.986;2022-07-22T10:00:08;5.22;;;2.67;;
10309;SDS011;5200;43.236;27.986;2022-07-22T10:02:36;3.40;;;2.40;;
10309;SDS011;5200;43.236;27.986;2022-07-22T10:05:08;6.65;;;2.72;;
10309;SDS011;5200;43.236;27.986;2022-07-22T10:07:38;7.90;;;2.60;;
10309;SDS011;5200;43.236;27.986;2022-07-22T10:10:07;2.75;;;2.35;;
10309;SDS011;5200;43.236;27.986;2022-07-22T10:12:36;2.28;;;2.10;;
10309;SDS011;5200;43.236;27.986;2022-07-22T10:15:04;3.35;;;2.75;;
10309;SDS011;5200;43.236;27.986;2022-07-22T10:17:33;2.13;;;2.03;;
10309;SDS011;5200;43.236;27.986;2022-07-22T10:20:02;3.08;;;2.65;;
10309;SDS011;5200;43.236;27.986;2022-07-22T10:25:26;3.28;;;1.67;;
10309;SDS011;5200;43.236;27.986;2022-07-22T10:27:56;4.72;;;2.80;;
10309;SDS011;5200;43.236;27.986;2022-07-22T10:30:25;3.75;;;2.20;;
10309;SDS011;5200;43.236;27.986;2022-07-22T10:33:06;5.50;;;2.38;;
10309;SDS011;5200;43.236;27.986;2022-07-22T10:35:38;2.88;;;2.35;;
10309;SDS011;5200;43.236;27.986;2022-07-22T10:38:21;3.05;;;2.35;;
10309;SDS011;5200;43.236;27.986;2022-07-22T10:40:49;2.42;;;2.22;;
10309;SDS011;5200;43.236;27.986;2022-07-22T10:43:18;6.53;;;2.22;;
10309;SDS011;5200;43.236;27.986;2022-07-22T10:45:46;2.58;;;2.17;;
10309;SDS011;5200;43.236;27.986;2022-07-22T10:48:17;2.53;;;2.28;;
10309;SDS011;5200;43.236;27.986;2022-07-22T10:50:50;4.45;;;2.30;;
10309;SDS011;5200;43.236;27.986;2022-07-22T10:53:23;3.97;;;2.40;;
10309;SDS011;5200;43.236;27.986;2022-07-22T10:56:11;4.03;;;2.38;;
10309;SDS011;5200;43.236;27.986;2022-07-22T10:58:51;5.35;;;2.58;;
10309;SDS011;5200;43.236;27.986;2022-07-22T11:01:24;4.95;;;2.10;;
10309;SDS011;5200;43.236;27.986;2022-07-22T11:03:54;4.85;;;1.88;;
10309;SDS011;5200;43.236;27.986;2022-07-22T11:06:23;2.38;;;2.17;;
10309;SDS011;5200;43.236;27.986;2022-07-22T11:08:55;2.38;;;2.17;;
10309;SDS011;5200;43.236;27.986;2022-07-22T11:11:42;4.30;;;1.92;;
10309;SDS011;5200;43.236;27.986;2022-07-22T11:14:11;2.53;;;2.00;;
10309;SDS011;5200;43.236;27.986;2022-07-22T11:16:39;2.33;;;1.90;;
10309;SDS011;5200;43.236;27.986;2022-07-22T11:19:06;2.50;;;2.08;;
10309;SDS011;5200;43.236;27.986;2022-07-22T11:21:33;3.97;;;2.00;;
10309;SDS011;5200;43.236;27.986;2022-07-22T11:24:03;2.00;;;1.90;;
10309;SDS011;5200;43.236;27.986;2022-07-22T11:26:33;4.63;;;1.98;;
10309;SDS011;5200;43.236;27.986;2022-07-22T11:29:03;6.43;;;2.10;;
10309;SDS011;5200;43.236;27.986;2022-07-22T11:31:31;3.00;;;2.08;;
10309;SDS011;5200;43.236;27.986;2022-07-22T11:34:08;5.18;;;2.10;;
10309;SDS011;5200;43.236;27.986;2022-07-22T11:36:37;2.25;;;2.05;;
10309;SDS011;5200;43.236;27.986;2022-07-22T11:39:08;3.80;;;1.85;;
10309;SDS011;5200;43.236;27.986;2022-07-22T11:41:36;1.83;;;1.70;;
10309;SDS011;5200;43.236;27.986;2022-07-22T11:44:03;2.20;;;2.00;;
10309;SDS011;5200;43.236;27.986;2022-07-22T11:46:34;2.33;;;1.90;;
10309;SDS011;5200;43.236;27.986;2022-07-22T11:49:02;2.17;;;1.98;;
10309;SDS011;5200;43.236;27.986;2022-07-22T11:51:29;4.10;;;2.15;;
10309;SDS011;5200;43.236;27.986;2022-07-22T11:53:58;2.65;;;2.05;;
10309;SDS011;5200;43.236;27.986;2022-07-22T11:56:27;5.50;;;2.15;;
10309;SDS011;5200;43.236;27.986;2022-07-22T11:58:54;4.55;;;2.10;;
10309;SDS011;5200;43.236;27.986;2022-07-22T12:01:22;1.83;;;1.38;;
10309;SDS011;5200;43.236;27.986;2022-07-22T12:03:51;3.22;;;1.70;;
10309;SDS011;5200;43.236;27.986;2022-07-22T12:06:20;5.80;;;1.80;;
10309;SDS011;5200;43.236;27.986;2022-07-22T12:08:50;4.30;;;1.70;;
10309;SDS011;5200;43.236;27.986;2022-07-22T12:11:19;6.72;;;1.80;;
10309;SDS011;5200;43.236;27.986;2022-07-22T12:13:50;2.20;;;1.48;;
10309;SDS011;5200;43.236;27.986;2022-07-22T12:16:23;4.63;;;1.50;;
10309;SDS011;5200;43.236;27.986;2022-07-22T12:18:52;2.95;;;1.52;;
10309;SDS011;5200;43.236;27.986;2022-07-22T12:21:21;3.97;;;1.70;;
10309;SDS011;5200;43.236;27.986;2022-07-22T12:23:49;1.55;;;1.45;;
10309;SDS011;5200;43.236;27.986;2022-07-22T12:26:17;2.25;;;1.70;;
10309;SDS011;5200;43.236;27.986;2022-07-22T12:28:45;1.77;;;1.67;;
10309;SDS011;5200;43.236;27.986;2022-07-22T12:31:13;2.10;;;1.90;;
10309;SDS011;5200;43.236;27.986;2022-07-22T12:33:47;2.35;;;1.83;;
10309;SDS011;5200;43.236;27.986;2022-07-22T12:36:14;2.25;;;1.67;;
10309;SDS011;5200;43.236;27.986;2022-07-22T12:38:41;4.15;;;1.88;;
10309;SDS011;5200;43.236;27.986;2022-07-22T12:41:21;5.82;;;2.10;;
10309;SDS011;5200;43.236;27.986;2022-07-22T12:43:52;2.40;;;2.20;;
10309;SDS011;5200;43.236;27.986;2022-07-22T12:46:21;3.08;;;2.33;;
10309;SDS011;5200;43.236;27.986;2022-07-22T12:48:48;1.90;;;1.80;;
10309;SDS011;5200;43.236;27.986;2022-07-22T12:51:16;2.25;;;1.70;;
10309;SDS011;5200;43.236;27.986;2022-07-22T12:53:43;3.78;;;2.45;;
10309;SDS011;5200;43.236;27.986;2022-07-22T12:56:11;2.97;;;2.03;;
10309;SDS011;5200;43.236;27.986;2022-07-22T12:58:38;3.45;;;2.10;;
10309;SDS011;5200;43.236;27.986;2022-07-22T13:01:06;3.17;;;2.17;;
10309;SDS011;5200;43.236;27.986;2022-07-22T13:03:35;4.60;;;2.30;;
10309;SDS011;5200;43.236;27.986;2022-07-22T13:06:03;3.58;;;2.00;;
10309;SDS011;5200;43.236;27.986;2022-07-22T13:11:52;6.13;;;2.20;;
10309;SDS011;5200;43.236;27.986;2022-07-22T13:14:19;4.05;;;2.08;;
10309;SDS011;5200;43.236;27.986;2022-07-22T13:16:46;3.17;;;2.40;;
10309;SDS011;5200;43.236;27.986;2022-07-22T13:19:17;3.60;;;2.60;;
10309;SDS011;5200;43.236;27.986;2022-07-22T13:21:44;4.38;;;2.92;;
10309;SDS011;5200;43.236;27.986;2022-07-22T13:24:11;3.97;;;2.75;;
10309;SDS011;5200;43.236;27.986;2022-07-22T13:26:38;3.70;;;2.55;;
10309;SDS011;5200;43.236;27.986;2022-07-22T13:29:05;3.17;;;2.30;;
10309;SDS011;5200;43.236;27.986;2022-07-22T13:31:32;3.42;;;3.10;;
10309;SDS011;5200;43.236;27.986;2022-07-22T13:33:59;3.17;;;2.67;;
10309;SDS011;5200;43.236;27.986;2022-07-22T13:36:27;3.03;;;2.50;;
10309;SDS011;5200;43.236;27.986;2022-07-22T13:38:57;4.68;;;2.38;;
10309;SDS011;5200;43.236;27.986;2022-07-22T13:41:24;2.38;;;2.17;;
10309;SDS011;5200;43.236;27.986;2022-07-22T13:43:51;3.75;;;2.40;;
10309;SDS011;5200;43.236;27.986;2022-07-22T13:46:18;2.20;;;2.00;;
10309;SDS011;5200;43.236;27.986;2022-07-22T13:48:45;7.53;;;2.20;;
10309;SDS011;5200;43.236;27.986;2022-07-22T13:51:12;2.00;;;1.90;;
10309;SDS011;5200;43.236;27.986;2022-07-22T13:53:42;8.98;;;2.10;;
10309;SDS011;5200;43.236;27.986;2022-07-22T13:56:09;2.85;;;2.35;;
10309;SDS011;5200;43.236;27.986;2022-07-22T13:58:37;7.35;;;2.85;;
10309;SDS011;5200;43.236;27.986;2022-07-22T14:01:06;6.65;;;2.58;;
10309;SDS011;5200;43.236;27.986;2022-07-22T14:03:34;3.08;;;2.25;;
10309;SDS011;5200;43.236;27.986;2022-07-22T14:06:01;3.20;;;2.08;;
10309;SDS011;5200;43.236;27.986;2022-07-22T14:08:28;5.00;;;2.75;;
10309;SDS011;5200;43.236;27.986;2022-07-22T14:10:56;3.80;;;2.38;;
10309;SDS011;5200;43.236;27.986;2022-07-22T14:13:24;3.88;;;2.50;;
10309;SDS011;5200;43.236;27.986;2022-07-22T14:15:51;5.65;;;2.35;;
10309;SDS011;5200;43.236;27.986;2022-07-22T14:18:18;8.57;;;2.05;;
10309;SDS011;5200;43.236;27.986;2022-07-22T14:20:45;3.38;;;2.03;;
10309;SDS011;5200;43.236;27.986;2022-07-22T14:23:13;3.97;;;2.10;;
10309;SDS011;5200;43.236;27.986;2022-07-22T14:25:41;3.25;;;2.00;;
10309;SDS011;5200;43.236;27.986;2022-07-22T14:28:10;5.95;;;2.20;;
10309;SDS011;5200;43.236;27.986;2022-07-22T14:30:37;3.38;;;2.00;;
10309;SDS011;5200;43.236;27.986;2022-07-22T14:33:03;4.18;;;2.40;;
10309;SDS011;5200;43.236;27.986;2022-07-22T14:35:30;4.30;;;2.17;;
10309;SDS011;5200;43.236;27.986;2022-07-22T14:37:59;3.13;;;1.90;;
10309;SDS011;5200;43.236;27.986;2022-07-22T14:40:27;3.63;;;1.90;;
10309;SDS011;5200;43.236;27.986;2022-07-22T14:42:54;3.88;;;2.10;;
10309;SDS011;5200;43.236;27.986;2022-07-22T14:45:22;3.13;;;1.80;;
10309;SDS011;5200;43.236;27.986;2022-07-22T14:47:49;2.05;;;1.83;;
10309;SDS011;5200;43.236;27.986;2022-07-22T14:50:16;3.47;;;2.22;;
10309;SDS011;5200;43.236;27.986;2022-07-22T14:52:43;2.67;;;2.15;;
10309;SDS011;5200;43.236;27.986;2022-07-22T14:55:11;2.67;;;1.90;;
10309;SDS011;5200;43.236;27.986;2022-07-22T14:57:38;4.13;;;2.22;;
10309;SDS011;5200;43.236;27.986;2022-07-22T15:00:05;3.83;;;2.00;;
10309;SDS011;5200;43.236;27.986;2022-07-22T15:02:35;3.35;;;1.70;;